Latest Coastal Weather Observations for Alva Beach

IDQ60701

Issued at 5:55 pm EST Sunday 21 September 2014 (issued every 10 minutes, with the page automatically refreshed every 10 minutes)

About coastal observations | Map of coastal stations | Coastal observations for QLD | Marine services | Other Formats
Station Details ID: 033295 Name: ALVA BEACH Lat: -19.46 Lon: 147.48 Height: 7.5 m
Data from the previous 72 hours. | See also: Recent months at Alva Beach
Date/Time
EST
Temp

°C
Wind Pressure Rain
since 9am
mm
Weather Cloud Vis
km
Sea
Height
m
Swell
Dir
 
Speed
knots
Gust
knots
hPa Trend Height
m
Period
s
Dir
21/05:30pm 22.7 E 14 20 1017.1 - 0.0 - - - - - - -
21/05:00pm 22.9 E 16 21 1016.9 - 0.0 - - - - - - -
21/04:30pm 23.1 E 15 19 1016.9 - 0.0 - - - - - - -
21/04:00pm 23.4 E 14 19 1017.1 - 0.0 - - - - - - -
21/03:30pm 24.0 E 13 20 1017.3 - 0.0 - - - - - - -
21/03:00pm 24.0 E 12 16 1017.3 - 0.0 - - - - - - -
21/02:30pm 24.3 E 11 16 1017.5 - 0.0 - - - - - - -
21/02:00pm 24.3 E 12 16 1017.5 - 0.0 - - - - - - -
21/01:30pm 24.7 E 13 18 1017.6 - 0.0 - - - - - - -
21/01:00pm 24.8 E 13 17 1017.9 - 0.0 - - - - - - -
21/12:30pm 24.7 E 13 17 1018.1 - 0.0 - - - - - - -
21/12:00pm 25.4 E 13 19 1018.3 - 0.0 - - - - - - -
21/11:30am 24.6 E 13 19 1018.7 - 0.0 - - - - - - -
21/11:00am 25.0 E 15 21 1018.9 - 0.0 - - - - - - -
21/10:30am 24.8 E 16 22 1018.6 - 0.0 - - - - - - -
21/10:00am 24.2 E 13 19 1019.2 - 0.0 - - - - - - -
21/09:30am 23.7 E 13 17 1019.2 - 0.0 - - - - - - -
21/09:00am 24.0 E 12 17 1019.0 - 0.0 - - - - - - -
21/08:30am 23.2 E 13 17 1018.7 - 0.0 - - - - - - -
21/08:00am 22.9 E 11 16 1018.4 - 0.0 - - - - - - -
21/07:30am 22.5 E 12 16 1018.2 - 0.0 - - - - - - -
21/07:00am 22.2 E 12 17 1017.8 - 0.0 - - - - - - -
21/06:30am 22.0 E 11 15 1017.6 - 0.0 - - - - - - -
21/06:00am 22.0 E 10 15 1017.2 - 0.0 - - - - - - -
21/05:30am 21.8 E 10 14 1016.9 - 0.0 - - - - - - -
21/05:00am 21.8 E 10 16 1016.6 - 0.0 - - - - - - -
21/04:30am 21.8 E 11 15 1016.3 - 0.0 - - - - - - -
21/04:00am 21.8 E 11 15 1016.2 - 0.0 - - - - - - -
21/03:30am 21.7 E 11 14 1016.0 - 0.0 - - - - - - -
21/03:00am 21.8 E 11 15 1016.1 - 0.0 - - - - - - -
21/02:30am 21.6 E 9 13 1016.4 - 0.0 - - - - - - -
21/02:00am 21.8 E 9 12 1016.7 - 0.0 - - - - - - -
21/01:30am 22.0 E 11 15 1017.1 - 0.0 - - - - - - -
21/01:00am 22.2 E 11 15 1017.6 - 0.0 - - - - - - -
21/12:30am 22.2 E 11 17 1017.9 - 0.0 - - - - - - -
21/12:00am 22.3 E 12 16 1018.1 - 0.0 - - - - - - -
 
Date/Time
EST
Temp

°C
Wind Pressure Rain
since 9am
mm
Weather Cloud Vis
km
Sea
Height
m
Swell
Dir
 
Speed
knots
Gust
knots
hPa Trend Height
m
Period
s
Dir
20/11:30pm 22.5 E 12 16 1018.1 - 0.0 - - - - - - -
20/11:00pm 22.5 E 13 16 1018.0 - 0.0 - - - - - - -
20/10:30pm 22.5 E 13 17 1018.1 - 0.0 - - - - - - -
20/10:00pm 22.6 E 13 18 1018.1 - 0.0 - - - - - - -
20/09:30pm 22.4 ENE 13 17 1018.0 - 0.0 - - - - - - -
20/09:00pm 22.4 ENE 14 17 1017.8 - 0.0 - - - - - - -
20/08:30pm 22.6 ENE 14 17 1017.6 - 0.0 - - - - - - -
20/08:00pm 22.7 ENE 14 18 1017.2 - 0.0 - - - - - - -
20/07:30pm 22.8 ENE 16 18 1016.9 - 0.0 - - - - - - -
20/07:00pm 22.9 ENE 13 15 1016.5 - 0.0 - - - - - - -
20/06:30pm 22.8 ENE 11 13 1015.9 - 0.0 - - - - - - -
20/06:00pm 22.9 NE 11 12 1015.0 - 0.0 - - - - - - -
20/05:30pm 22.9 NE 11 13 1014.5 - 0.0 - - - - - - -
20/05:00pm 23.1 NE 12 14 1014.2 - 0.0 - - - - - - -
20/04:30pm 23.3 NE 13 15 1013.7 - 0.0 - - - - - - -
20/04:00pm 23.6 NE 11 13 1013.6 - 0.0 - - - - - - -
20/03:30pm 23.9 NNE 11 13 1013.6 - 0.0 - - - - - - -
20/03:00pm 23.8 NE 11 13 1013.6 - 0.0 - - - - - - -
20/02:30pm 24.4 NE 11 14 1013.9 - 0.0 - - - - - - -
20/02:00pm 24.2 NE 13 15 1014.3 - 0.0 - - - - - - -
20/01:30pm 24.4 NE 11 13 1014.9 - 0.0 - - - - - - -
20/01:00pm 24.8 NE 11 13 1015.4 - 0.0 - - - - - - -
20/12:30pm 24.6 NE 10 12 1015.9 - 0.0 - - - - - - -
20/12:00pm 25.0 ENE 9 11 1016.6 - 0.0 - - - - - - -
20/11:30am 24.9 NE 9 11 1017.1 - 0.0 - - - - - - -
20/11:00am 24.6 ENE 8 10 1017.5 - 0.0 - - - - - - -
20/10:30am 24.3 ENE 8 9 1018.0 - 0.0 - - - - - - -
20/10:00am 24.3 ENE 5 8 1018.3 - 0.0 - - - - - - -
20/09:30am 23.9 E 5 6 1018.6 - 0.0 - - - - - - -
20/09:00am 23.2 E 5 7 1018.7 - 0.0 - - - - - - -
20/08:30am 23.2 ESE 4 5 1018.7 - 0.0 - - - - - - -
20/08:00am 22.3 SSE 2 5 1018.4 - 0.0 - - - - - - -
20/07:30am 20.1 S 3 5 1018.0 - 0.0 - - - - - - -
20/07:00am 18.1 S 4 6 1017.8 - 0.0 - - - - - - -
20/06:30am 17.0 SSW 4 6 1017.4 - 0.0 - - - - - - -
20/06:00am 17.0 S 5 6 1017.1 - 0.0 - - - - - - -
20/05:30am 17.1 SSW 5 6 1016.8 - 0.0 - - - - - - -
20/05:00am 17.7 SSW 4 6 1016.5 - 0.0 - - - - - - -
20/04:30am 18.0 S 3 5 1016.1 - 0.0 - - - - - - -
20/04:00am 20.0 NE 4 6 1016.1 - 0.0 - - - - - - -
20/03:30am 20.8 NE 5 7 1016.3 - 0.0 - - - - - - -
20/03:00am 21.0 ENE 6 8 1016.4 - 0.0 - - - - - - -
20/02:30am 21.2 NE 8 10 1016.5 - 0.0 - - - - - - -
20/02:00am 21.4 NE 9 11 1016.8 - 0.0 - - - - - - -
20/01:30am 21.4 NE 9 12 1017.0 - 0.0 - - - - - - -
20/01:00am 21.4 ENE 11 13 1017.2 - 0.0 - - - - - - -
20/12:30am 21.5 ENE 12 15 1017.6 - 0.0 - - - - - - -
20/12:00am 21.5 ENE 12 14 1017.9 - 0.0 - - - - - - -
 
Date/Time
EST
Temp

°C
Wind Pressure Rain
since 9am
mm
Weather Cloud Vis
km
Sea
Height
m
Swell
Dir
 
Speed
knots
Gust
knots
hPa Trend Height
m
Period
s
Dir
19/11:30pm 21.5 ENE 12 15 1017.9 - 0.0 - - - - - - -
19/11:00pm 21.6 ENE 11 14 1017.8 - 0.0 - - - - - - -
19/10:30pm 21.6 ENE 13 15 1017.7 - 0.0 - - - - - - -
19/10:00pm 21.8 ENE 13 15 1017.9 - 0.0 - - - - - - -
19/09:30pm 21.8 ENE 11 15 1017.9 - 0.0 - - - - - - -
19/09:00pm 21.8 ENE 13 16 1017.9 - 0.0 - - - - - - -
19/08:30pm 21.9 ENE 15 17 1017.5 - 0.0 - - - - - - -
19/08:00pm 22.0 ENE 15 17 1017.3 - 0.0 - - - - - - -
19/07:30pm 21.9 ENE 14 16 1016.8 - 0.0 - - - - - - -
19/07:00pm 22.0 ENE 13 15 1016.5 - 0.0 - - - - - - -
19/06:30pm 21.9 ENE 12 14 1016.1 - 0.0 - - - - - - -
19/06:00pm 22.0 ENE 12 13 1015.7 - 0.0 - - - - - - -
19/05:30pm 22.2 ENE 11 12 1015.5 - 0.0 - - - - - - -
19/05:00pm 22.7 ENE 10 12 1015.4 - 0.0 - - - - - - -
19/04:30pm 23.0 ENE 10 13 1015.5 - 0.0 - - - - - - -
19/04:00pm 23.3 ENE 10 12 1015.5 - 0.0 - - - - - - -
19/03:30pm 23.5 ENE 9 11 1015.4 - 0.0 - - - - - - -
19/03:00pm 23.5 ENE 9 12 1015.5 - 0.0 - - - - - - -
19/02:30pm 23.0 E 8 12 1015.8 - 0.0 - - - - - - -
19/02:00pm 23.8 ENE 9 11 1016.1 - 0.0 - - - - - - -
19/01:30pm 23.7 E 8 11 1016.4 - 0.0 - - - - - - -
19/01:00pm 23.7 E 8 11 1016.9 - 0.0 - - - - - - -
19/12:30pm 24.1 E 8 11 1017.3 - 0.0 - - - - - - -
19/12:00pm 24.3 ESE 7 10 1017.8 - 0.0 - - - - - - -
19/11:30am 24.5 E 7 10 1018.4 - 0.0 - - - - - - -
19/11:00am 23.8 E 8 12 1019.1 - 0.0 - - - - - - -
19/10:30am 24.7 E 7 11 1019.3 - 0.0 - - - - - - -
19/10:00am 24.0 ESE 6 10 1020.7 - 0.0 - - - - - - -
19/09:30am 24.3 ESE 6 11 1019.7 - 0.0 - - - - - - -
19/09:00am 23.4 ESE 6 10 1019.7 - 0.0 - - - - - - -
19/08:30am 23.4 ESE 7 11 1019.5 - 0.0 - - - - - - -
19/08:00am 22.1 ESE 6 11 1019.2 - 0.0 - - - - - - -
19/07:30am 22.1 ESE 7 11 1018.7 - 0.0 - - - - - - -
19/07:00am 21.7 E 8 10 1018.5 - 0.0 - - - - - - -
19/06:30am 21.2 E 7 10 1017.8 - 0.0 - - - - - - -
19/06:00am 21.0 E 8 11 1017.7 - 0.0 - - - - - - -
19/05:30am 20.9 E 7 10 1017.4 - 0.0 - - - - - - -
19/05:00am 20.8 E 7 10 1017.0 - 0.0 - - - - - - -
19/04:30am 20.8 E 7 9 1016.7 - 0.0 - - - - - - -
19/04:00am 21.1 E 8 10 1016.6 - 0.0 - - - - - - -
19/03:30am 20.9 E 7 10 1016.5 - 0.0 - - - - - - -
19/03:00am 20.9 E 7 11 1016.6 - 0.0 - - - - - - -
19/02:30am 20.9 E 7 12 1016.9 - 0.0 - - - - - - -
19/02:00am 21.1 E 8 11 1017.1 - 0.0 - - - - - - -
19/01:30am 21.3 E 9 13 1017.3 - 0.0 - - - - - - -
19/01:00am 21.3 E 9 13 1017.5 - 0.0 - - - - - - -
19/12:30am 21.5 E 9 13 1017.5 - 0.0 - - - - - - -
19/12:00am 21.8 E 10 14 1017.7 - 0.0 - - - - - - -
 
Date/Time
EST
Temp

°C
Wind Pressure Rain
since 9am
mm
Weather Cloud Vis
km
Sea
Height
m
Swell
Dir
 
Speed
knots
Gust
knots
hPa Trend Height
m
Period
s
Dir
18/11:30pm 21.8 E 10 14 1017.9 - 0.0 - - - - - - -
18/11:00pm 21.8 E 9 12 1017.9 - 0.0 - - - - - - -
18/10:30pm 21.7 E 9 12 1017.7 - 0.0 - - - - - - -
18/10:00pm 21.8 E 10 13 1017.7 - 0.0 - - - - - - -
18/09:30pm 22.4 E 10 14 1017.6 - 0.0 - - - - - - -
18/09:00pm 22.2 E 9 12 1017.2 - 0.0 - - - - - - -
18/08:30pm 22.3 E 9 13 1017.1 - 0.0 - - - - - - -
18/08:00pm 22.6 E 10 13 1016.8 - 0.0 - - - - - - -
18/07:30pm 22.7 ENE 10 12 1016.5 - 0.0 - - - - - - -
18/07:00pm 22.9 ENE 8 10 1016.2 - 0.0 - - - - - - -
18/06:30pm 22.9 NE 9 10 1015.7 - 0.0 - - - - - - -
18/06:00pm 23.3 NNE 8 9 1015.3 - 0.0 - - - - - - -

Other Formats:

Comma delimited format used in spreadsheet applications
http://www.bom.gov.au/fwo/IDQ60701/IDQ60701.95296.axf

JavaScript Object Notation format (JSON) in row-major order
http://www.bom.gov.au/fwo/IDQ60701/IDQ60701.95296.json